createdAt,value
2018-08-20T00:01:33.357Z,14.13
2018-08-20T00:05:27.392Z,12.60
2018-08-20T00:09:24.423Z,17.97
2018-08-20T00:13:18.432Z,15.97
2018-08-20T00:17:12.426Z,14.70
2018-08-20T00:21:06.375Z,15.83
2018-08-20T00:25:09.354Z,11.22
2018-08-20T00:29:04.530Z,14.30
2018-08-20T00:32:58.541Z,12.90
2018-08-20T00:36:52.535Z,22.30
2018-08-20T00:40:46.663Z,14.27
2018-08-20T00:44:40.575Z,13.33
2018-08-20T00:48:34.498Z,12.37
2018-08-20T00:52:28.410Z,16.17
2018-08-20T00:56:22.369Z,10.30
2018-08-20T01:00:16.271Z,16.07
2018-08-20T01:04:10.226Z,12.40
2018-08-20T01:08:04.193Z,15.60
2018-08-20T01:11:58.234Z,12.13
2018-08-20T01:15:52.132Z,14.10
2018-08-20T01:19:46.067Z,11.90
2018-08-20T01:23:40.012Z,11.80
2018-08-20T01:27:33.935Z,14.57
2018-08-20T01:31:27.915Z,12.80
2018-08-20T01:35:24.857Z,12.07
2018-08-20T01:39:18.754Z,9.60
2018-08-20T01:43:12.662Z,10.77
2018-08-20T01:47:06.647Z,11.07
2018-08-20T01:51:00.577Z,14.27
2018-08-20T01:54:54.603Z,11.70
2018-08-20T01:58:48.550Z,10.93
2018-08-20T02:02:42.467Z,10.00
2018-08-20T02:06:36.415Z,11.77
2018-08-20T02:10:30.451Z,23.37
2018-08-20T02:14:24.450Z,14.47
2018-08-20T02:18:18.410Z,12.80
2018-08-20T02:22:12.354Z,17.13
2018-08-20T02:26:06.829Z,15.27
2018-08-20T02:30:00.778Z,12.50
2018-08-20T02:33:54.890Z,14.70
2018-08-20T02:37:48.827Z,12.57
2018-08-20T02:41:43.386Z,13.50
2018-08-20T02:45:37.357Z,15.57
2018-08-20T02:49:31.359Z,12.43
2018-08-20T02:53:25.352Z,13.77
2018-08-20T02:57:19.247Z,19.13
2018-08-20T03:01:13.183Z,18.98
2018-08-20T03:05:07.623Z,16.00
2018-08-20T03:09:01.578Z,15.98
2018-08-20T03:12:55.750Z,17.43
2018-08-20T03:16:49.702Z,17.97
2018-08-20T03:20:43.665Z,14.63
2018-08-20T03:24:37.643Z,21.57
2018-08-20T03:28:31.610Z,16.27
2018-08-20T03:32:25.588Z,18.80
2018-08-20T03:36:19.571Z,19.83
2018-08-20T03:40:13.636Z,20.00
2018-08-20T03:44:07.526Z,17.80
2018-08-20T03:48:01.422Z,15.57
2018-08-20T03:51:55.501Z,14.03
2018-08-20T03:55:49.475Z,17.47
2018-08-20T03:59:44.083Z,19.00
2018-08-20T04:03:38.275Z,20.40
2018-08-20T04:07:32.238Z,16.90
2018-08-20T04:11:26.157Z,16.10
2018-08-20T04:15:20.077Z,15.93
2018-08-20T04:19:14.423Z,18.10
2018-08-20T04:23:08.446Z,17.90
2018-08-20T04:27:02.438Z,16.77
2018-08-20T04:30:56.430Z,20.40
2018-08-20T04:34:50.432Z,18.10
2018-08-20T04:38:44.525Z,19.73
2018-08-20T04:42:38.510Z,17.77
2018-08-20T04:46:33.214Z,17.97
2018-08-20T04:50:27.366Z,16.27
2018-08-20T04:54:21.159Z,15.20
2018-08-20T04:58:15.099Z,16.43
2018-08-20T05:02:09.101Z,14.60
2018-08-20T05:06:03.067Z,14.93
2018-08-20T05:09:57.014Z,16.03
2018-08-20T05:13:51.066Z,14.60
2018-08-20T05:17:45.073Z,16.10
2018-08-20T05:21:39.060Z,14.23
2018-08-20T05:25:32.986Z,14.30
2018-08-20T05:29:26.947Z,15.17
2018-08-20T05:33:20.913Z,16.07
2018-08-20T05:37:15.004Z,20.70
2018-08-20T05:41:09.017Z,16.97
2018-08-20T05:45:03.170Z,20.50
2018-08-20T05:48:57.261Z,15.97
2018-08-20T05:52:51.373Z,20.00
2018-08-20T05:56:45.395Z,18.67
2018-08-20T06:00:39.486Z,20.83
2018-08-20T06:04:33.500Z,23.07
2018-08-20T06:08:27.550Z,17.00
2018-08-20T06:12:21.517Z,17.63
2018-08-20T06:16:15.543Z,16.40
2018-08-20T06:20:13.200Z,13.97
2018-08-20T06:24:07.225Z,17.43
2018-08-20T06:28:01.193Z,17.00
2018-08-20T06:31:55.194Z,18.37
2018-08-20T06:35:49.288Z,20.67
2018-08-20T06:39:43.362Z,18.07
2018-08-20T06:43:37.352Z,20.70
2018-08-20T06:47:31.297Z,18.63
2018-08-20T06:51:25.232Z,19.73
2018-08-20T06:55:19.204Z,20.77
2018-08-20T06:59:13.220Z,16.73
2018-08-20T07:03:07.142Z,15.40
2018-08-20T07:07:01.299Z,18.00
2018-08-20T07:10:55.387Z,17.93
2018-08-20T07:14:49.481Z,18.10
2018-08-20T07:18:43.495Z,18.30
2018-08-20T07:22:37.544Z,15.80
2018-08-20T07:26:31.431Z,16.43
2018-08-20T07:30:25.553Z,14.37
2018-08-20T07:34:19.523Z,14.18
2018-08-20T07:38:13.542Z,17.50
2018-08-20T07:42:07.528Z,16.17
2018-08-20T07:46:01.583Z,16.93
2018-08-20T07:49:55.571Z,19.57
2018-08-20T07:53:49.648Z,22.33
2018-08-20T07:57:43.667Z,23.10
2018-08-20T08:01:37.690Z,21.77
2018-08-20T08:05:31.630Z,23.27
2018-08-20T08:09:25.631Z,21.93
2018-08-20T08:13:19.604Z,21.73
2018-08-20T08:17:13.579Z,23.73
2018-08-20T08:21:07.592Z,23.30
2018-08-20T08:25:01.573Z,23.03
2018-08-20T08:28:55.542Z,21.67
2018-08-20T08:32:49.489Z,24.50
2018-08-20T08:36:43.751Z,22.10
2018-08-20T08:40:37.870Z,25.13
2018-08-20T08:44:31.830Z,21.17
2018-08-20T08:48:26.220Z,25.13
2018-08-20T08:52:20.200Z,25.35
2018-08-20T08:56:14.355Z,18.53
2018-08-20T09:00:14.318Z,25.93
2018-08-20T09:04:08.375Z,23.53
2018-08-20T09:08:02.320Z,26.20
2018-08-20T09:11:56.291Z,22.30
2018-08-20T09:15:50.576Z,24.70
2018-08-20T09:19:44.720Z,29.83
2018-08-20T09:23:38.763Z,29.23
2018-08-20T09:27:32.742Z,26.10
2018-08-20T09:31:26.834Z,31.10
2018-08-20T09:35:20.862Z,29.27
2018-08-20T09:39:14.876Z,28.47
2018-08-20T09:43:09.190Z,25.73
2018-08-20T09:47:03.219Z,34.17
2018-08-20T09:50:57.247Z,33.30
2018-08-20T09:54:51.161Z,35.00
2018-08-20T09:58:45.344Z,31.50
2018-08-20T10:02:39.497Z,30.00
2018-08-20T10:06:33.622Z,29.97
2018-08-20T10:10:27.716Z,34.88
2018-08-20T10:14:21.819Z,32.87
2018-08-20T10:18:15.923Z,29.87
2018-08-20T10:22:09.954Z,29.30
2018-08-20T10:26:03.945Z,26.93
2018-08-20T10:30:00.701Z,27.90
2018-08-20T10:33:54.948Z,26.63
2018-08-20T10:37:49.273Z,26.93
2018-08-20T10:41:43.300Z,25.53
2018-08-20T10:45:42.678Z,27.63
2018-08-20T10:49:36.627Z,22.43
2018-08-20T10:53:31.508Z,21.00
2018-08-20T10:57:25.499Z,23.30
2018-08-20T11:01:19.631Z,21.77
2018-08-20T11:05:16.159Z,21.83
2018-08-20T11:09:10.149Z,20.57
2018-08-20T11:13:04.147Z,19.02
2018-08-20T11:16:58.203Z,23.73
2018-08-20T11:20:52.201Z,24.90
2018-08-20T11:24:46.323Z,25.80
2018-08-20T11:28:40.364Z,27.02
2018-08-20T11:32:34.336Z,25.12
2018-08-20T11:36:28.339Z,25.30
2018-08-20T11:40:22.325Z,27.63
2018-08-20T11:44:16.419Z,29.10
2018-08-20T11:48:10.451Z,29.57
2018-08-20T11:52:04.576Z,30.17
2018-08-20T11:55:58.687Z,23.30
2018-08-20T11:59:52.778Z,27.00
2018-08-20T12:03:50.990Z,22.90
2018-08-20T12:07:45.045Z,30.33
2018-08-20T12:11:39.023Z,28.23
2018-08-20T12:15:33.030Z,24.90
2018-08-20T12:19:27.058Z,27.83
2018-08-20T12:23:21.231Z,27.03
2018-08-20T12:27:15.107Z,31.87
2018-08-20T12:31:09.152Z,23.57
2018-08-20T12:35:03.200Z,27.30
2018-08-20T12:38:57.193Z,23.40
2018-08-20T12:42:51.134Z,22.40
2018-08-20T12:46:45.114Z,18.47
2018-08-20T12:50:39.063Z,19.43
2018-08-20T12:54:33.012Z,23.80
2018-08-20T12:58:27.049Z,18.17
2018-08-20T13:02:21.090Z,19.07
2018-08-20T13:06:15.080Z,18.87
2018-08-20T13:10:09.159Z,14.57
2018-08-20T13:14:03.210Z,20.27
2018-08-20T13:17:57.126Z,16.47
2018-08-20T13:21:51.236Z,17.30
2018-08-20T13:25:45.268Z,22.50
2018-08-20T13:29:39.226Z,19.27
2018-08-20T13:33:33.215Z,23.63
2018-08-20T13:37:27.163Z,18.40
2018-08-20T13:41:21.712Z,13.20
2018-08-20T13:45:15.672Z,16.10
2018-08-20T13:49:09.820Z,10.90
2018-08-20T13:53:03.779Z,14.90
2018-08-20T13:56:57.868Z,17.57
2018-08-20T14:00:51.840Z,15.13
2018-08-20T14:04:45.922Z,25.70
2018-08-20T14:08:41.935Z,15.50
2018-08-20T14:12:36.588Z,12.97
2018-08-20T14:16:30.568Z,14.63
2018-08-20T14:20:24.482Z,16.90
2018-08-20T14:24:18.425Z,12.80
2018-08-20T14:28:12.358Z,10.53
2018-08-20T14:32:06.388Z,14.27
2018-08-20T14:36:00.360Z,9.87
2018-08-20T14:39:54.290Z,11.60
2018-08-20T14:43:48.270Z,14.90
2018-08-20T14:47:43.199Z,12.37
2018-08-20T14:51:37.114Z,10.07
2018-08-20T14:55:31.067Z,10.85
2018-08-20T14:59:25.264Z,8.57
2018-08-20T15:03:19.278Z,15.47
2018-08-20T15:07:13.222Z,5.63
2018-08-20T15:11:07.223Z,8.67
2018-08-20T15:15:01.227Z,6.73
2018-08-20T15:18:55.295Z,5.87
2018-08-20T15:22:49.274Z,4.43
2018-08-20T15:26:43.260Z,3.87
2018-08-20T15:30:37.229Z,6.73
2018-08-20T15:34:31.218Z,4.37
2018-08-20T15:38:25.218Z,4.70
2018-08-20T15:42:19.159Z,3.40
2018-08-20T15:46:13.085Z,3.70
2018-08-20T15:50:07.098Z,3.97
2018-08-20T15:54:01.286Z,6.73
2018-08-20T15:57:55.264Z,2.77
2018-08-20T16:01:49.202Z,8.73
2018-08-20T16:05:43.184Z,7.37
2018-08-20T16:09:37.111Z,3.23
2018-08-20T16:13:31.066Z,4.62
2018-08-20T16:17:24.979Z,4.00
2018-08-20T16:21:18.978Z,2.83
2018-08-20T16:25:12.894Z,2.80
2018-08-20T16:29:06.846Z,3.17
2018-08-20T16:33:00.842Z,3.03
2018-08-20T16:36:54.866Z,3.17
2018-08-20T16:40:49.051Z,10.63
2018-08-20T16:44:42.983Z,3.65
2018-08-20T16:48:37.034Z,3.30
2018-08-20T16:52:31.026Z,6.10
2018-08-20T16:56:24.986Z,2.90
2018-08-20T17:00:19.039Z,4.97
2018-08-20T17:04:28.266Z,2.80
2018-08-20T17:08:28.454Z,2.00
2018-08-20T17:12:22.534Z,1.87
2018-08-20T17:16:16.509Z,1.57
2018-08-20T17:20:11.830Z,2.50
2018-08-20T17:24:05.876Z,1.83
2018-08-20T17:28:03.179Z,1.50
2018-08-20T17:31:57.190Z,2.50
2018-08-20T17:35:51.141Z,2.63
2018-08-20T17:40:06.695Z,3.80
2018-08-20T17:44:00.630Z,4.53
2018-08-20T17:47:54.610Z,2.23
2018-08-20T17:51:49.796Z,2.23
2018-08-20T17:55:43.784Z,2.23
2018-08-20T17:59:37.734Z,3.87
2018-08-20T18:03:32.274Z,1.93
2018-08-20T18:07:26.290Z,3.37
2018-08-20T18:11:20.252Z,2.47
2018-08-20T18:15:15.722Z,3.73
2018-08-20T18:19:09.862Z,2.73
2018-08-20T18:23:03.854Z,1.37
2018-08-20T18:26:57.990Z,1.30
2018-08-20T18:30:56.622Z,1.92
2018-08-20T18:34:50.539Z,3.27
2018-08-20T18:38:51.411Z,2.63
2018-08-20T18:42:47.362Z,3.33
2018-08-20T18:46:41.437Z,1.57
2018-08-20T18:50:35.383Z,1.00
2018-08-20T18:54:29.663Z,1.53
2018-08-20T18:58:24.111Z,1.80
2018-08-20T19:02:57.997Z,1.20
2018-08-20T19:06:56.564Z,1.57
2018-08-20T19:10:50.478Z,1.37
2018-08-20T19:14:44.419Z,1.40
2018-08-20T19:18:38.691Z,1.13
2018-08-20T19:22:32.618Z,1.40
2018-08-20T19:26:27.657Z,1.63
2018-08-20T19:30:24.823Z,2.53
2018-08-20T19:34:18.967Z,3.83
2018-08-20T19:38:13.087Z,1.50
2018-08-20T19:42:07.721Z,5.37
2018-08-20T19:46:01.682Z,1.80
2018-08-20T19:49:55.603Z,1.70
2018-08-20T19:53:49.591Z,2.23
2018-08-20T19:57:43.674Z,2.43
2018-08-20T20:01:37.744Z,2.03
2018-08-20T20:05:31.770Z,2.40
2018-08-20T20:09:25.704Z,2.57
2018-08-20T20:13:19.625Z,2.17
2018-08-20T20:17:13.559Z,3.00
2018-08-20T20:21:07.586Z,2.33
2018-08-20T20:25:01.507Z,3.07
2018-08-20T20:28:55.436Z,2.07
2018-08-20T20:32:49.415Z,6.15
2018-08-20T20:36:43.361Z,2.83
2018-08-20T20:40:37.347Z,2.37
2018-08-20T20:44:31.296Z,2.20
2018-08-20T20:48:25.287Z,2.17
2018-08-20T20:52:19.379Z,5.50
2018-08-20T20:56:13.377Z,2.50
2018-08-20T21:00:07.937Z,2.07
2018-08-20T21:04:05.714Z,2.10
2018-08-20T21:07:59.781Z,2.40
2018-08-20T21:11:53.694Z,2.97
2018-08-20T21:15:53.114Z,3.20
2018-08-20T21:19:47.185Z,5.63
2018-08-20T21:23:41.672Z,3.03
2018-08-20T21:27:35.646Z,6.33
2018-08-20T21:31:31.360Z,2.80
2018-08-20T21:35:25.281Z,4.03
2018-08-20T21:39:19.368Z,3.17
2018-08-20T21:43:13.318Z,2.93
2018-08-20T21:47:18.497Z,2.80
2018-08-20T21:51:18.400Z,3.70
2018-08-20T21:55:12.371Z,4.87
2018-08-20T21:59:06.340Z,4.00
2018-08-20T22:03:01.264Z,3.80
2018-08-20T22:06:55.195Z,3.87
2018-08-20T22:10:49.166Z,4.40
2018-08-20T22:14:43.089Z,3.10
2018-08-20T22:18:39.806Z,6.20
2018-08-20T22:22:33.691Z,3.10
2018-08-20T22:26:27.719Z,3.27
2018-08-20T22:30:21.694Z,4.20
2018-08-20T22:34:15.654Z,2.93
2018-08-20T22:38:09.575Z,3.20
2018-08-20T22:42:03.515Z,4.23
2018-08-20T22:45:57.451Z,4.57
2018-08-20T22:49:51.386Z,4.83
2018-08-20T22:53:46.595Z,4.57
2018-08-20T22:57:48.234Z,5.73
2018-08-20T23:01:42.216Z,7.33
2018-08-20T23:05:36.180Z,7.67
2018-08-20T23:09:32.291Z,6.10
2018-08-20T23:13:27.223Z,4.60
2018-08-20T23:17:21.303Z,5.90
2018-08-20T23:21:15.205Z,3.50
2018-08-20T23:25:09.152Z,3.83
2018-08-20T23:29:03.182Z,2.80
2018-08-20T23:32:57.082Z,2.63
2018-08-20T23:36:51.887Z,3.20
2018-08-20T23:40:45.845Z,3.73
2018-08-20T23:44:39.822Z,2.93
2018-08-20T23:48:33.730Z,2.27
2018-08-20T23:52:27.759Z,2.70
2018-08-20T23:56:22.026Z,2.93
